sensor_id;sensor_type;location;lat;lon;timestamp;temperature;humidity
21807;DHT22;11065;50.786;7.840;2022-12-18T00:01:20;-5.00;44.40
21807;DHT22;11065;50.786;7.840;2022-12-18T00:03:48;-5.00;44.40
21807;DHT22;11065;50.786;7.840;2022-12-18T00:06:15;-5.00;44.40
21807;DHT22;11065;50.786;7.840;2022-12-18T00:08:43;-5.00;44.40
21807;DHT22;11065;50.786;7.840;2022-12-18T00:11:19;-5.00;44.40
21807;DHT22;11065;50.786;7.840;2022-12-18T00:13:47;-5.00;44.40
21807;DHT22;11065;50.786;7.840;2022-12-18T00:16:16;-5.10;44.40
21807;DHT22;11065;50.786;7.840;2022-12-18T00:18:45;-5.10;44.80
21807;DHT22;11065;50.786;7.840;2022-12-18T00:21:12;-5.10;44.30
21807;DHT22;11065;50.786;7.840;2022-12-18T00:23:42;-5.10;44.40
21807;DHT22;11065;50.786;7.840;2022-12-18T00:26:14;-5.10;44.40
21807;DHT22;11065;50.786;7.840;2022-12-18T00:28:43;-5.10;44.90
21807;DHT22;11065;50.786;7.840;2022-12-18T00:31:12;-5.20;44.40
21807;DHT22;11065;50.786;7.840;2022-12-18T00:33:39;-5.20;44.40
21807;DHT22;11065;50.786;7.840;2022-12-18T00:36:14;-5.20;44.40
21807;DHT22;11065;50.786;7.840;2022-12-18T00:38:41;-5.20;44.40
21807;DHT22;11065;50.786;7.840;2022-12-18T00:41:09;-5.20;44.40
21807;DHT22;11065;50.786;7.840;2022-12-18T00:43:38;-5.20;44.50
21807;DHT22;11065;50.786;7.840;2022-12-18T00:46:06;-5.20;44.50
21807;DHT22;11065;50.786;7.840;2022-12-18T00:48:33;-5.30;44.40
21807;DHT22;11065;50.786;7.840;2022-12-18T00:51:00;-5.30;44.30
21807;DHT22;11065;50.786;7.840;2022-12-18T00:53:27;-5.30;44.40
21807;DHT22;11065;50.786;7.840;2022-12-18T00:55:55;-5.40;44.40
21807;DHT22;11065;50.786;7.840;2022-12-18T00:58:22;-5.40;44.40
21807;DHT22;11065;50.786;7.840;2022-12-18T01:00:50;-5.40;44.40
21807;DHT22;11065;50.786;7.840;2022-12-18T01:03:16;-5.40;44.40
21807;DHT22;11065;50.786;7.840;2022-12-18T01:05:43;-5.40;44.50
21807;DHT22;11065;50.786;7.840;2022-12-18T01:08:10;-5.40;44.50
21807;DHT22;11065;50.786;7.840;2022-12-18T01:10:40;-5.40;44.50
21807;DHT22;11065;50.786;7.840;2022-12-18T01:13:08;-5.40;44.50
21807;DHT22;11065;50.786;7.840;2022-12-18T01:15:35;-5.40;44.50
21807;DHT22;11065;50.786;7.840;2022-12-18T01:18:02;-5.50;44.50
21807;DHT22;11065;50.786;7.840;2022-12-18T01:20:29;-5.50;44.40
21807;DHT22;11065;50.786;7.840;2022-12-18T01:22:57;-5.50;44.40
21807;DHT22;11065;50.786;7.840;2022-12-18T01:25:23;-5.50;44.40
21807;DHT22;11065;50.786;7.840;2022-12-18T01:27:50;-5.50;44.40
21807;DHT22;11065;50.786;7.840;2022-12-18T01:30:17;-5.50;44.50
21807;DHT22;11065;50.786;7.840;2022-12-18T01:32:44;-5.50;44.40
21807;DHT22;11065;50.786;7.840;2022-12-18T01:35:11;-5.50;44.40
21807;DHT22;11065;50.786;7.840;2022-12-18T01:37:38;-5.50;44.40
21807;DHT22;11065;50.786;7.840;2022-12-18T01:40:05;-5.60;44.40
21807;DHT22;11065;50.786;7.840;2022-12-18T01:42:33;-5.60;44.40
21807;DHT22;11065;50.786;7.840;2022-12-18T01:47:51;-5.60;44.50
21807;DHT22;11065;50.786;7.840;2022-12-18T01:50:23;-5.60;44.50
21807;DHT22;11065;50.786;7.840;2022-12-18T01:53:00;-5.60;44.50
21807;DHT22;11065;50.786;7.840;2022-12-18T01:55:32;-5.60;44.40
21807;DHT22;11065;50.786;7.840;2022-12-18T01:58:01;-5.70;44.40
21807;DHT22;11065;50.786;7.840;2022-12-18T02:00:29;-5.70;44.40
21807;DHT22;11065;50.786;7.840;2022-12-18T02:02:56;-5.70;44.40
21807;DHT22;11065;50.786;7.840;2022-12-18T02:05:55;-5.70;44.40
21807;DHT22;11065;50.786;7.840;2022-12-18T02:08:43;-5.80;44.40
21807;DHT22;11065;50.786;7.840;2022-12-18T02:11:23;-5.80;44.40
21807;DHT22;11065;50.786;7.840;2022-12-18T02:14:08;-5.80;44.40
21807;DHT22;11065;50.786;7.840;2022-12-18T02:19:33;-5.80;44.40
21807;DHT22;11065;50.786;7.840;2022-12-18T02:22:29;-5.80;44.40
21807;DHT22;11065;50.786;7.840;2022-12-18T02:25:08;-5.80;44.40
21807;DHT22;11065;50.786;7.840;2022-12-18T02:27:40;-5.80;44.50
21807;DHT22;11065;50.786;7.840;2022-12-18T02:30:08;-5.80;44.50
21807;DHT22;11065;50.786;7.840;2022-12-18T02:32:43;-5.90;44.40
21807;DHT22;11065;50.786;7.840;2022-12-18T02:35:24;-5.80;44.50
21807;DHT22;11065;50.786;7.840;2022-12-18T02:37:55;-5.90;44.50
21807;DHT22;11065;50.786;7.840;2022-12-18T02:40:24;-5.90;44.50
21807;DHT22;11065;50.786;7.840;2022-12-18T02:42:53;-5.90;44.40
21807;DHT22;11065;50.786;7.840;2022-12-18T02:45:20;-5.90;44.40
21807;DHT22;11065;50.786;7.840;2022-12-18T02:47:48;-5.90;44.40
21807;DHT22;11065;50.786;7.840;2022-12-18T02:50:37;-5.90;44.40
21807;DHT22;11065;50.786;7.840;2022-12-18T02:56:07;-5.90;44.40
21807;DHT22;11065;50.786;7.840;2022-12-18T03:02:23;-6.00;44.40
21807;DHT22;11065;50.786;7.840;2022-12-18T03:05:19;-6.00;44.40
21807;DHT22;11065;50.786;7.840;2022-12-18T03:10:39;-6.00;44.30
21807;DHT22;11065;50.786;7.840;2022-12-18T03:13:13;-6.10;44.30
21807;DHT22;11065;50.786;7.840;2022-12-18T03:15:50;-6.10;44.30
21807;DHT22;11065;50.786;7.840;2022-12-18T03:18:23;-6.10;44.40
21807;DHT22;11065;50.786;7.840;2022-12-18T03:20:53;-6.20;44.30
21807;DHT22;11065;50.786;7.840;2022-12-18T03:23:25;-6.10;44.40
21807;DHT22;11065;50.786;7.840;2022-12-18T03:25:58;-6.20;44.40
21807;DHT22;11065;50.786;7.840;2022-12-18T03:28:57;-6.20;44.40
21807;DHT22;11065;50.786;7.840;2022-12-18T03:31:27;-6.20;44.40
21807;DHT22;11065;50.786;7.840;2022-12-18T03:34:02;-6.20;44.40
21807;DHT22;11065;50.786;7.840;2022-12-18T03:36:40;-6.20;44.40
21807;DHT22;11065;50.786;7.840;2022-12-18T03:39:07;-6.20;44.40
21807;DHT22;11065;50.786;7.840;2022-12-18T03:41:57;-6.20;44.80
21807;DHT22;11065;50.786;7.840;2022-12-18T03:44:55;-6.20;44.40
21807;DHT22;11065;50.786;7.840;2022-12-18T03:47:43;-6.20;44.50
21807;DHT22;11065;50.786;7.840;2022-12-18T03:50:20;-6.30;44.40
21807;DHT22;11065;50.786;7.840;2022-12-18T03:55:24;-6.30;44.50
21807;DHT22;11065;50.786;7.840;2022-12-18T03:57:58;-6.30;44.40
21807;DHT22;11065;50.786;7.840;2022-12-18T04:00:33;-6.30;44.50
21807;DHT22;11065;50.786;7.840;2022-12-18T04:03:07;-6.30;44.50
21807;DHT22;11065;50.786;7.840;2022-12-18T04:05:42;-6.30;44.50
21807;DHT22;11065;50.786;7.840;2022-12-18T04:08:10;-6.30;44.40
21807;DHT22;11065;50.786;7.840;2022-12-18T04:10:41;-6.30;44.40
21807;DHT22;11065;50.786;7.840;2022-12-18T04:13:09;-6.30;44.40
21807;DHT22;11065;50.786;7.840;2022-12-18T04:15:36;-6.30;44.50
21807;DHT22;11065;50.786;7.840;2022-12-18T04:18:08;-6.30;44.50
21807;DHT22;11065;50.786;7.840;2022-12-18T04:20:38;-6.30;44.50
21807;DHT22;11065;50.786;7.840;2022-12-18T04:23:07;-6.30;44.50
21807;DHT22;11065;50.786;7.840;2022-12-18T04:25:34;-6.30;44.50
21807;DHT22;11065;50.786;7.840;2022-12-18T04:28:10;-6.30;44.50
21807;DHT22;11065;50.786;7.840;2022-12-18T04:30:38;-6.30;44.50
21807;DHT22;11065;50.786;7.840;2022-12-18T04:33:11;-6.30;44.60
21807;DHT22;11065;50.786;7.840;2022-12-18T04:35:42;-6.30;44.60
21807;DHT22;11065;50.786;7.840;2022-12-18T04:38:09;-6.30;44.60
21807;DHT22;11065;50.786;7.840;2022-12-18T04:40:38;-6.40;44.50
21807;DHT22;11065;50.786;7.840;2022-12-18T04:43:13;-6.40;44.50
21807;DHT22;11065;50.786;7.840;2022-12-18T04:45:40;-6.30;44.50
21807;DHT22;11065;50.786;7.840;2022-12-18T04:48:07;-6.40;44.50
21807;DHT22;11065;50.786;7.840;2022-12-18T04:50:34;-6.40;44.50
21807;DHT22;11065;50.786;7.840;2022-12-18T04:53:00;-6.40;44.50
21807;DHT22;11065;50.786;7.840;2022-12-18T04:55:27;-6.40;44.50
21807;DHT22;11065;50.786;7.840;2022-12-18T04:57:54;-6.40;44.50
21807;DHT22;11065;50.786;7.840;2022-12-18T05:00:21;-6.40;44.50
21807;DHT22;11065;50.786;7.840;2022-12-18T05:02:49;-6.40;44.60
21807;DHT22;11065;50.786;7.840;2022-12-18T05:05:16;-6.40;44.50
21807;DHT22;11065;50.786;7.840;2022-12-18T05:07:44;-6.40;44.60
21807;DHT22;11065;50.786;7.840;2022-12-18T05:10:13;-6.40;44.60
21807;DHT22;11065;50.786;7.840;2022-12-18T05:12:40;-6.40;44.50
21807;DHT22;11065;50.786;7.840;2022-12-18T05:15:31;-6.40;44.60
21807;DHT22;11065;50.786;7.840;2022-12-18T05:17:58;-6.40;44.60
21807;DHT22;11065;50.786;7.840;2022-12-18T05:20:27;-6.40;44.60
21807;DHT22;11065;50.786;7.840;2022-12-18T05:22:55;-6.50;44.60
21807;DHT22;11065;50.786;7.840;2022-12-18T05:25:22;-6.40;44.70
21807;DHT22;11065;50.786;7.840;2022-12-18T05:27:50;-6.50;44.60
21807;DHT22;11065;50.786;7.840;2022-12-18T05:30:16;-6.40;44.70
21807;DHT22;11065;50.786;7.840;2022-12-18T05:32:43;-6.50;44.60
21807;DHT22;11065;50.786;7.840;2022-12-18T05:35:11;-6.50;44.60
21807;DHT22;11065;50.786;7.840;2022-12-18T05:37:39;-6.40;44.70
21807;DHT22;11065;50.786;7.840;2022-12-18T05:40:10;-6.50;44.60
21807;DHT22;11065;50.786;7.840;2022-12-18T05:42:37;-6.40;44.70
21807;DHT22;11065;50.786;7.840;2022-12-18T05:45:04;-6.50;44.60
21807;DHT22;11065;50.786;7.840;2022-12-18T05:47:32;-6.50;44.60
21807;DHT22;11065;50.786;7.840;2022-12-18T05:49:59;-6.50;44.70
21807;DHT22;11065;50.786;7.840;2022-12-18T05:52:26;-6.50;44.70
21807;DHT22;11065;50.786;7.840;2022-12-18T05:54:52;-6.50;44.70
21807;DHT22;11065;50.786;7.840;2022-12-18T05:57:19;-6.50;44.70
21807;DHT22;11065;50.786;7.840;2022-12-18T05:59:46;-6.50;44.60
21807;DHT22;11065;50.786;7.840;2022-12-18T06:02:13;-6.50;44.60
21807;DHT22;11065;50.786;7.840;2022-12-18T06:04:40;-6.50;44.60
21807;DHT22;11065;50.786;7.840;2022-12-18T06:07:07;-6.50;44.60
21807;DHT22;11065;50.786;7.840;2022-12-18T06:09:34;-6.50;44.70
21807;DHT22;11065;50.786;7.840;2022-12-18T06:12:01;-6.50;44.70
21807;DHT22;11065;50.786;7.840;2022-12-18T06:14:28;-6.50;44.70
21807;DHT22;11065;50.786;7.840;2022-12-18T06:16:55;-6.50;44.70
21807;DHT22;11065;50.786;7.840;2022-12-18T06:19:22;-6.50;44.60
21807;DHT22;11065;50.786;7.840;2022-12-18T06:21:49;-6.50;44.70
21807;DHT22;11065;50.786;7.840;2022-12-18T06:24:16;-6.60;44.70
21807;DHT22;11065;50.786;7.840;2022-12-18T06:26:42;-6.50;44.70
21807;DHT22;11065;50.786;7.840;2022-12-18T06:29:09;-6.50;44.70
21807;DHT22;11065;50.786;7.840;2022-12-18T06:31:36;-6.50;44.80
21807;DHT22;11065;50.786;7.840;2022-12-18T06:34:04;-6.50;44.80
21807;DHT22;11065;50.786;7.840;2022-12-18T06:36:32;-6.50;44.80
21807;DHT22;11065;50.786;7.840;2022-12-18T06:38:58;-6.50;45.30
21807;DHT22;11065;50.786;7.840;2022-12-18T06:41:26;-6.50;44.80
21807;DHT22;11065;50.786;7.840;2022-12-18T06:43:53;-6.50;44.80
21807;DHT22;11065;50.786;7.840;2022-12-18T06:46:27;-6.50;44.80
21807;DHT22;11065;50.786;7.840;2022-12-18T06:48:54;-6.50;44.80
21807;DHT22;11065;50.786;7.840;2022-12-18T06:51:22;-6.50;44.70
21807;DHT22;11065;50.786;7.840;2022-12-18T06:53:49;-6.50;44.70
21807;DHT22;11065;50.786;7.840;2022-12-18T06:56:16;-6.60;44.70
21807;DHT22;11065;50.786;7.840;2022-12-18T06:58:43;-6.60;44.70
21807;DHT22;11065;50.786;7.840;2022-12-18T07:01:11;-6.60;44.70
21807;DHT22;11065;50.786;7.840;2022-12-18T07:03:40;-6.60;44.70
21807;DHT22;11065;50.786;7.840;2022-12-18T07:06:20;-6.50;44.80
21807;DHT22;11065;50.786;7.840;2022-12-18T07:08:49;-6.50;44.80
21807;DHT22;11065;50.786;7.840;2022-12-18T07:11:16;-6.60;44.80
21807;DHT22;11065;50.786;7.840;2022-12-18T07:13:43;-6.60;44.70
21807;DHT22;11065;50.786;7.840;2022-12-18T07:16:16;-6.50;44.80
21807;DHT22;11065;50.786;7.840;2022-12-18T07:18:50;-6.60;44.70
21807;DHT22;11065;50.786;7.840;2022-12-18T07:21:18;-6.60;44.80
21807;DHT22;11065;50.786;7.840;2022-12-18T07:23:46;-6.60;44.80
21807;DHT22;11065;50.786;7.840;2022-12-18T07:26:17;-6.60;44.80
21807;DHT22;11065;50.786;7.840;2022-12-18T07:28:44;-6.60;44.90
21807;DHT22;11065;50.786;7.840;2022-12-18T07:31:13;-6.50;44.90
21807;DHT22;11065;50.786;7.840;2022-12-18T07:33:41;-6.50;45.00
21807;DHT22;11065;50.786;7.840;2022-12-18T07:36:10;-6.60;45.00
21807;DHT22;11065;50.786;7.840;2022-12-18T07:38:37;-6.50;45.10
21807;DHT22;11065;50.786;7.840;2022-12-18T07:41:07;-6.50;45.10
21807;DHT22;11065;50.786;7.840;2022-12-18T07:43:34;-6.50;45.20
21807;DHT22;11065;50.786;7.840;2022-12-18T07:46:01;-6.50;45.20
21807;DHT22;11065;50.786;7.840;2022-12-18T07:48:29;-6.50;45.10
21807;DHT22;11065;50.786;7.840;2022-12-18T07:51:03;-6.50;45.10
21807;DHT22;11065;50.786;7.840;2022-12-18T07:53:32;-6.40;45.10
21807;DHT22;11065;50.786;7.840;2022-12-18T07:56:01;-6.40;45.60
21807;DHT22;11065;50.786;7.840;2022-12-18T07:58:48;-6.40;45.10
21807;DHT22;11065;50.786;7.840;2022-12-18T08:01:15;-6.40;45.10
21807;DHT22;11065;50.786;7.840;2022-12-18T08:03:42;-6.40;45.10
21807;DHT22;11065;50.786;7.840;2022-12-18T08:06:09;-6.40;45.10
21807;DHT22;11065;50.786;7.840;2022-12-18T08:08:37;-6.40;45.20
21807;DHT22;11065;50.786;7.840;2022-12-18T08:11:04;-6.30;45.20
21807;DHT22;11065;50.786;7.840;2022-12-18T08:13:31;-6.30;45.10
21807;DHT22;11065;50.786;7.840;2022-12-18T08:16:04;-6.30;45.10
21807;DHT22;11065;50.786;7.840;2022-12-18T08:18:36;-6.30;45.10
21807;DHT22;11065;50.786;7.840;2022-12-18T08:21:14;-6.20;45.20
21807;DHT22;11065;50.786;7.840;2022-12-18T08:23:42;-6.20;45.30
21807;DHT22;11065;50.786;7.840;2022-12-18T08:26:11;-6.20;45.30
21807;DHT22;11065;50.786;7.840;2022-12-18T08:28:38;-6.10;45.30
21807;DHT22;11065;50.786;7.840;2022-12-18T08:31:06;-6.10;45.70
21807;DHT22;11065;50.786;7.840;2022-12-18T08:33:34;-6.00;45.30
21807;DHT22;11065;50.786;7.840;2022-12-18T08:36:01;-6.00;45.60
21807;DHT22;11065;50.786;7.840;2022-12-18T08:38:28;-6.00;45.30
21807;DHT22;11065;50.786;7.840;2022-12-18T08:41:03;-5.90;45.40
21807;DHT22;11065;50.786;7.840;2022-12-18T08:43:31;-5.90;45.40
21807;DHT22;11065;50.786;7.840;2022-12-18T08:46:18;-5.90;45.30
21807;DHT22;11065;50.786;7.840;2022-12-18T08:48:46;-5.90;45.30
21807;DHT22;11065;50.786;7.840;2022-12-18T08:51:15;-5.90;45.30
21807;DHT22;11065;50.786;7.840;2022-12-18T08:53:42;-5.80;45.40
21807;DHT22;11065;50.786;7.840;2022-12-18T08:56:09;-5.80;45.40
21807;DHT22;11065;50.786;7.840;2022-12-18T08:58:36;-5.70;45.50
21807;DHT22;11065;50.786;7.840;2022-12-18T09:01:06;-5.70;45.60
21807;DHT22;11065;50.786;7.840;2022-12-18T09:03:33;-5.60;45.80
21807;DHT22;11065;50.786;7.840;2022-12-18T09:06:00;-5.50;45.80
21807;DHT22;11065;50.786;7.840;2022-12-18T09:08:28;-5.50;45.90
21807;DHT22;11065;50.786;7.840;2022-12-18T09:10:55;-5.40;45.90
21807;DHT22;11065;50.786;7.840;2022-12-18T09:13:22;-5.30;46.00
21807;DHT22;11065;50.786;7.840;2022-12-18T09:15:51;-5.30;46.00
21807;DHT22;11065;50.786;7.840;2022-12-18T09:18:20;-5.20;46.10
21807;DHT22;11065;50.786;7.840;2022-12-18T09:20:47;-5.00;46.30
21807;DHT22;11065;50.786;7.840;2022-12-18T09:23:14;-4.90;46.40
21807;DHT22;11065;50.786;7.840;2022-12-18T09:25:41;-4.80;46.50
21807;DHT22;11065;50.786;7.840;2022-12-18T09:28:17;-4.70;46.50
21807;DHT22;11065;50.786;7.840;2022-12-18T09:30:49;-4.50;46.60
21807;DHT22;11065;50.786;7.840;2022-12-18T09:33:16;-4.40;46.70
21807;DHT22;11065;50.786;7.840;2022-12-18T09:35:44;-4.20;46.70
21807;DHT22;11065;50.786;7.840;2022-12-18T09:38:14;-4.10;46.70
21807;DHT22;11065;50.786;7.840;2022-12-18T09:40:52;-4.00;46.90
21807;DHT22;11065;50.786;7.840;2022-12-18T09:43:26;-3.80;46.90
21807;DHT22;11065;50.786;7.840;2022-12-18T09:46:03;-3.70;46.90
21807;DHT22;11065;50.786;7.840;2022-12-18T09:48:36;-3.60;46.90
21807;DHT22;11065;50.786;7.840;2022-12-18T09:51:17;-3.40;46.90
21807;DHT22;11065;50.786;7.840;2022-12-18T09:53:53;-3.30;46.90
21807;DHT22;11065;50.786;7.840;2022-12-18T09:56:22;-3.20;46.90
21807;DHT22;11065;50.786;7.840;2022-12-18T09:58:57;-3.10;46.90
21807;DHT22;11065;50.786;7.840;2022-12-18T10:01:25;-3.00;47.10
21807;DHT22;11065;50.786;7.840;2022-12-18T10:04:07;-2.90;47.20
21807;DHT22;11065;50.786;7.840;2022-12-18T10:06:52;-2.80;47.40
21807;DHT22;11065;50.786;7.840;2022-12-18T10:09:28;-2.60;47.50
21807;DHT22;11065;50.786;7.840;2022-12-18T10:12:23;-2.40;47.60
21807;DHT22;11065;50.786;7.840;2022-12-18T10:20:42;-1.90;47.80
21807;DHT22;11065;50.786;7.840;2022-12-18T10:23:31;-1.60;48.00
21807;DHT22;11065;50.786;7.840;2022-12-18T10:26:05;-1.30;48.40
21807;DHT22;11065;50.786;7.840;2022-12-18T10:28:37;-1.00;48.50
21807;DHT22;11065;50.786;7.840;2022-12-18T10:31:07;-0.70;48.70
21807;DHT22;11065;50.786;7.840;2022-12-18T10:33:37;-0.40;48.80
21807;DHT22;11065;50.786;7.840;2022-12-18T10:36:04;-0.10;48.90
21807;DHT22;11065;50.786;7.840;2022-12-18T10:38:33;0.20;48.90
21807;DHT22;11065;50.786;7.840;2022-12-18T10:41:03;0.60;48.90
21807;DHT22;11065;50.786;7.840;2022-12-18T10:43:34;0.90;48.90
21807;DHT22;11065;50.786;7.840;2022-12-18T10:46:12;1.20;48.80
21807;DHT22;11065;50.786;7.840;2022-12-18T10:51:08;1.70;48.40
21807;DHT22;11065;50.786;7.840;2022-12-18T10:53:41;1.90;48.30
21807;DHT22;11065;50.786;7.840;2022-12-18T10:56:09;2.10;48.30
21807;DHT22;11065;50.786;7.840;2022-12-18T10:58:38;2.30;48.20
21807;DHT22;11065;50.786;7.840;2022-12-18T11:03:47;2.80;48.20
21807;DHT22;11065;50.786;7.840;2022-12-18T11:06:28;3.10;48.30
21807;DHT22;11065;50.786;7.840;2022-12-18T11:09:08;3.40;48.40
21807;DHT22;11065;50.786;7.840;2022-12-18T11:11:49;3.70;48.50
21807;DHT22;11065;50.786;7.840;2022-12-18T11:14:25;4.10;48.50
21807;DHT22;11065;50.786;7.840;2022-12-18T11:16:53;4.40;48.30
21807;DHT22;11065;50.786;7.840;2022-12-18T11:19:41;4.80;48.20
21807;DHT22;11065;50.786;7.840;2022-12-18T11:22:28;5.10;47.90
21807;DHT22;11065;50.786;7.840;2022-12-18T11:28:00;5.60;47.10
21807;DHT22;11065;50.786;7.840;2022-12-18T11:30:28;5.80;47.10
21807;DHT22;11065;50.786;7.840;2022-12-18T11:38:27;6.20;46.30
21807;DHT22;11065;50.786;7.840;2022-12-18T11:40:59;6.30;46.00
21807;DHT22;11065;50.786;7.840;2022-12-18T11:43:32;6.30;45.80
21807;DHT22;11065;50.786;7.840;2022-12-18T11:46:09;6.40;45.50
21807;DHT22;11065;50.786;7.840;2022-12-18T11:48:47;6.40;45.40
21807;DHT22;11065;50.786;7.840;2022-12-18T11:51:28;6.40;45.30
21807;DHT22;11065;50.786;7.840;2022-12-18T11:53:56;6.40;45.00
21807;DHT22;11065;50.786;7.840;2022-12-18T11:56:33;6.40;45.10
21807;DHT22;11065;50.786;7.840;2022-12-18T12:00:03;6.40;45.10
21807;DHT22;11065;50.786;7.840;2022-12-18T12:10:39;6.50;45.00
21807;DHT22;11065;50.786;7.840;2022-12-18T12:13:22;6.50;44.80
21807;DHT22;11065;50.786;7.840;2022-12-18T12:16:09;6.50;44.90
21807;DHT22;11065;50.786;7.840;2022-12-18T12:31:24;6.30;44.10
21807;DHT22;11065;50.786;7.840;2022-12-18T12:39:48;5.90;43.90
21807;DHT22;11065;50.786;7.840;2022-12-18T12:42:39;5.80;44.10
21807;DHT22;11065;50.786;7.840;2022-12-18T12:45:34;5.70;43.90
21807;DHT22;11065;50.786;7.840;2022-12-18T12:48:02;5.60;44.00
21807;DHT22;11065;50.786;7.840;2022-12-18T12:50:33;5.50;44.10
21807;DHT22;11065;50.786;7.840;2022-12-18T12:53:01;5.40;44.10
21807;DHT22;11065;50.786;7.840;2022-12-18T12:55:33;5.30;44.10
21807;DHT22;11065;50.786;7.840;2022-12-18T12:58:10;5.20;44.10
21807;DHT22;11065;50.786;7.840;2022-12-18T13:01:15;5.10;44.00
21807;DHT22;11065;50.786;7.840;2022-12-18T13:06:37;4.90;44.10
21807;DHT22;11065;50.786;7.840;2022-12-18T13:09:10;4.80;44.00
21807;DHT22;11065;50.786;7.840;2022-12-18T13:11:40;4.80;44.00
21807;DHT22;11065;50.786;7.840;2022-12-18T13:17:17;4.60;44.00
21807;DHT22;11065;50.786;7.840;2022-12-18T13:20:09;4.60;44.10
21807;DHT22;11065;50.786;7.840;2022-12-18T13:22:48;4.50;44.10
21807;DHT22;11065;50.786;7.840;2022-12-18T13:41:00;4.10;44.00
21807;DHT22;11065;50.786;7.840;2022-12-18T13:43:48;4.10;44.10
21807;DHT22;11065;50.786;7.840;2022-12-18T13:46:26;4.00;44.10
21807;DHT22;11065;50.786;7.840;2022-12-18T13:49:02;4.00;44.20
21807;DHT22;11065;50.786;7.840;2022-12-18T13:51:33;3.90;44.20
21807;DHT22;11065;50.786;7.840;2022-12-18T13:56:48;3.90;44.20
21807;DHT22;11065;50.786;7.840;2022-12-18T14:02:13;3.80;44.30
21807;DHT22;11065;50.786;7.840;2022-12-18T14:04:45;3.70;44.30
21807;DHT22;11065;50.786;7.840;2022-12-18T14:07:18;3.70;44.30
21807;DHT22;11065;50.786;7.840;2022-12-18T14:09:49;3.70;44.30
21807;DHT22;11065;50.786;7.840;2022-12-18T14:12:31;3.70;44.30
21807;DHT22;11065;50.786;7.840;2022-12-18T14:17:57;3.60;44.20
21807;DHT22;11065;50.786;7.840;2022-12-18T14:20:27;3.50;44.20
21807;DHT22;11065;50.786;7.840;2022-12-18T14:22:56;3.50;44.20
21807;DHT22;11065;50.786;7.840;2022-12-18T14:25:29;3.40;44.20
21807;DHT22;11065;50.786;7.840;2022-12-18T14:28:12;3.40;44.20
21807;DHT22;11065;50.786;7.840;2022-12-18T14:30:41;3.30;44.30
21807;DHT22;11065;50.786;7.840;2022-12-18T14:35:51;3.20;44.20
21807;DHT22;11065;50.786;7.840;2022-12-18T14:40:45;3.10;44.20
21807;DHT22;11065;50.786;7.840;2022-12-18T14:43:12;3.10;44.30
21807;DHT22;11065;50.786;7.840;2022-12-18T14:45:42;3.00;44.30
21807;DHT22;11065;50.786;7.840;2022-12-18T14:48:34;3.00;44.30
21807;DHT22;11065;50.786;7.840;2022-12-18T14:51:22;2.90;44.40
21807;DHT22;11065;50.786;7.840;2022-12-18T14:53:58;2.90;44.40
21807;DHT22;11065;50.786;7.840;2022-12-18T14:56:29;2.80;44.40
21807;DHT22;11065;50.786;7.840;2022-12-18T14:58:59;2.80;44.40
21807;DHT22;11065;50.786;7.840;2022-12-18T15:01:35;2.70;44.40
21807;DHT22;11065;50.786;7.840;2022-12-18T15:04:04;2.70;44.40
21807;DHT22;11065;50.786;7.840;2022-12-18T15:06:37;2.70;44.40
21807;DHT22;11065;50.786;7.840;2022-12-18T15:09:22;2.60;44.40
21807;DHT22;11065;50.786;7.840;2022-12-18T15:11:49;2.60;44.50
21807;DHT22;11065;50.786;7.840;2022-12-18T15:16:53;2.50;44.50
21807;DHT22;11065;50.786;7.840;2022-12-18T15:19:22;2.40;44.50
21807;DHT22;11065;50.786;7.840;2022-12-18T15:21:53;2.40;44.50
21807;DHT22;11065;50.786;7.840;2022-12-18T15:24:26;2.40;44.50
21807;DHT22;11065;50.786;7.840;2022-12-18T15:26:53;2.30;44.50
21807;DHT22;11065;50.786;7.840;2022-12-18T15:29:23;2.30;44.50
21807;DHT22;11065;50.786;7.840;2022-12-18T15:32:04;2.30;44.60
21807;DHT22;11065;50.786;7.840;2022-12-18T15:34:32;2.20;44.70
21807;DHT22;11065;50.786;7.840;2022-12-18T15:37:00;2.20;44.70
21807;DHT22;11065;50.786;7.840;2022-12-18T15:39:27;2.20;44.70
21807;DHT22;11065;50.786;7.840;2022-12-18T15:41:54;2.20;44.70
21807;DHT22;11065;50.786;7.840;2022-12-18T15:44:39;2.10;44.70
21807;DHT22;11065;50.786;7.840;2022-12-18T15:47:12;2.10;44.70
21807;DHT22;11065;50.786;7.840;2022-12-18T15:49:40;2.10;44.80
21807;DHT22;11065;50.786;7.840;2022-12-18T15:52:10;2.00;44.80
21807;DHT22;11065;50.786;7.840;2022-12-18T15:54:38;2.00;44.80
21807;DHT22;11065;50.786;7.840;2022-12-18T15:57:24;2.00;44.80
21807;DHT22;11065;50.786;7.840;2022-12-18T15:59:55;2.00;44.80
21807;DHT22;11065;50.786;7.840;2022-12-18T16:02:26;2.00;44.90
21807;DHT22;11065;50.786;7.840;2022-12-18T16:04:54;1.90;44.80
21807;DHT22;11065;50.786;7.840;2022-12-18T16:07:21;1.90;44.90
21807;DHT22;11065;50.786;7.840;2022-12-18T16:09:50;1.90;44.90
21807;DHT22;11065;50.786;7.840;2022-12-18T16:12:22;1.90;44.90
21807;DHT22;11065;50.786;7.840;2022-12-18T16:14:50;1.90;45.00
21807;DHT22;11065;50.786;7.840;2022-12-18T16:17:17;1.90;45.00
21807;DHT22;11065;50.786;7.840;2022-12-18T16:19:44;1.90;45.00
21807;DHT22;11065;50.786;7.840;2022-12-18T16:22:18;1.90;45.00
21807;DHT22;11065;50.786;7.840;2022-12-18T16:24:46;1.90;45.10
21807;DHT22;11065;50.786;7.840;2022-12-18T16:27:13;1.90;45.10
21807;DHT22;11065;50.786;7.840;2022-12-18T16:29:40;1.90;45.00
21807;DHT22;11065;50.786;7.840;2022-12-18T16:32:14;1.90;45.00
21807;DHT22;11065;50.786;7.840;2022-12-18T16:34:41;1.90;45.10
21807;DHT22;11065;50.786;7.840;2022-12-18T16:37:09;1.90;45.10
21807;DHT22;11065;50.786;7.840;2022-12-18T16:39:38;1.90;45.10
21807;DHT22;11065;50.786;7.840;2022-12-18T16:42:16;1.80;45.10
21807;DHT22;11065;50.786;7.840;2022-12-18T16:44:47;1.80;45.10
21807;DHT22;11065;50.786;7.840;2022-12-18T16:47:14;1.80;45.10
21807;DHT22;11065;50.786;7.840;2022-12-18T16:49:42;1.80;45.10
21807;DHT22;11065;50.786;7.840;2022-12-18T16:52:12;1.80;45.60
21807;DHT22;11065;50.786;7.840;2022-12-18T16:54:39;1.80;45.20
21807;DHT22;11065;50.786;7.840;2022-12-18T16:57:06;1.80;45.20
21807;DHT22;11065;50.786;7.840;2022-12-18T16:59:35;1.80;45.30
21807;DHT22;11065;50.786;7.840;2022-12-18T17:02:06;1.80;45.20
21807;DHT22;11065;50.786;7.840;2022-12-18T17:04:33;1.80;45.30
21807;DHT22;11065;50.786;7.840;2022-12-18T17:07:00;1.80;45.20
21807;DHT22;11065;50.786;7.840;2022-12-18T17:09:27;1.80;45.20
21807;DHT22;11065;50.786;7.840;2022-12-18T17:11:54;1.80;45.30
21807;DHT22;11065;50.786;7.840;2022-12-18T17:14:23;1.70;45.20
21807;DHT22;11065;50.786;7.840;2022-12-18T17:16:52;1.70;45.30
21807;DHT22;11065;50.786;7.840;2022-12-18T17:19:39;1.70;45.30
21807;DHT22;11065;50.786;7.840;2022-12-18T17:22:05;1.70;45.30
21807;DHT22;11065;50.786;7.840;2022-12-18T17:24:34;1.70;45.40
21807;DHT22;11065;50.786;7.840;2022-12-18T17:27:02;1.60;45.30
21807;DHT22;11065;50.786;7.840;2022-12-18T17:29:29;1.60;45.40
21807;DHT22;11065;50.786;7.840;2022-12-18T17:31:56;1.60;45.50
21807;DHT22;11065;50.786;7.840;2022-12-18T17:34:26;1.60;45.50
21807;DHT22;11065;50.786;7.840;2022-12-18T17:36:53;1.60;45.50
21807;DHT22;11065;50.786;7.840;2022-12-18T17:39:20;1.60;45.50
21807;DHT22;11065;50.786;7.840;2022-12-18T17:41:47;1.50;46.00
21807;DHT22;11065;50.786;7.840;2022-12-18T17:44:15;1.50;45.50
21807;DHT22;11065;50.786;7.840;2022-12-18T17:46:42;1.50;45.60